Colfax, Illinois
Current Conditions -  °F | °C
As of 5:56 AM on Monday 24 Nov 2014 (Local Time) from KBMI Reporting Station
Moderate Rain Moderate Rain  
Wind Chill: 28°   Ceiling: 700
Heat Index: 39°   Visibility: 3mi
Dew Point: 37°   Wind: 26mph
Humidity: 93%   Direction: 270°W
Pressure: 29.21"   Gusts: 35mph
Location:  40.57°N, 88.62°W
Report Text: KBMI 241156Z 27023G30KT 3SM RA BR OVC007 04/03 A2921 RMK AO2 53022 60038 70145 T00380027 10100 20038 CIG 005V012 P0014 PK WND 26030/1147 SLP897
Loading
Personal Weather Stations






























Interactive Weather Map New forecast layout! Learn more

10-Day Weather Forecast

Advertisements
Track Severe Weather on mobile